»·PEaware :: N292MC KNYL-KOLS

N292MC :: KNYL-KOLS

FLIGHT INFORMATION

Flight Status: Arrived
Operator: Privately registered:
United States
More flights under this callsign
Pilot: Maurice C. (12314)
Aircraft: Unknown
(KODI)
More flights by this aircraft type
Origin: KNYL Yuma MCAS/Yuma Intl
United States
Destination: KOLS Nogales Intl
United States
More flights between these airports :: More routes between these airports
Route: GBN
File this flight plan on PilotEdge
Remarks: ALPHABET CHALLENGE
Altitude:
(Current/Filed)
7,500ft
Speed:
(Current/Filed)
180kts
Departed: 10-Oct-20 01:15 PM
Arrived: 10-Oct-20 02:37 PM
Distance/Time
Traveled:
205nm/1:22
Distance/Time
To Go:
Arrived

Flight Plot

Page will automatically refresh every two minutes.

Flight plan parsing failed; only flown route is shown


Map Options




Map Legend


Flown Route
Filed Route
Departure Airport
Arrival Airport
Navaid (VOR, NDB)
Fix

Horizontal Profiles

Position Reports

Time Latitude Longitude Heading Altitude Ground
Speed
10-Oct-20 12:56 32.661760 -114.609871 0 194ft 0kts
10-Oct-20 12:57 32.661760 -114.609871 0 194ft 0kts
10-Oct-20 12:58 32.661760 -114.609871 0 194ft 0kts
10-Oct-20 12:59 32.661760 -114.609871 0 194ft 0kts
10-Oct-20 13:00 32.661760 -114.609871 0 194ft 0kts
10-Oct-20 13:01 32.661760 -114.609871 0 194ft 0kts
10-Oct-20 13:02 32.661760 -114.609871 0 194ft 0kts
10-Oct-20 13:02 32.661760 -114.609871 0 194ft 0kts
10-Oct-20 13:04 32.661760 -114.609871 0 194ft 0kts
10-Oct-20 13:04 32.661760 -114.609871 0 194ft 0kts
10-Oct-20 13:05 32.661760 -114.609871 0 194ft 0kts
10-Oct-20 13:06 32.661763 -114.609871 0 194ft 0kts
10-Oct-20 13:07 32.661763 -114.609871 0 194ft 0kts
10-Oct-20 13:08 32.661763 -114.609871 0 194ft 0kts
10-Oct-20 13:09 32.661763 -114.609871 0 194ft 0kts
10-Oct-20 13:10 32.661841 -114.609328 97 194ft 10kts
10-Oct-20 13:11 32.662694 -114.605537 358 196ft 14kts
10-Oct-20 13:12 32.665021 -114.605553 1 198ft 0kts
10-Oct-20 13:13 32.666028 -114.603943 76 199ft 38kts
10-Oct-20 13:14 32.663483 -114.571550 97 1044ft 150kts
10-Oct-20 13:15 32.662988 -114.518164 77 1818ft 171kts
10-Oct-20 13:16 32.671630 -114.461515 81 2406ft 177kts
10-Oct-20 13:17 32.682321 -114.404257 77 2968ft 177kts
10-Oct-20 13:18 32.694234 -114.347545 78 3505ft 177kts
10-Oct-20 13:19 32.706183 -114.292379 77 4374ft 169kts
10-Oct-20 13:20 32.717792 -114.238485 77 5242ft 168kts
10-Oct-20 13:21 32.729384 -114.184580 77 6093ft 168kts
10-Oct-20 13:22 32.740985 -114.130757 77 6916ft 168kts
10-Oct-20 13:23 32.752786 -114.076222 77 7499ft 179kts
10-Oct-20 13:24 32.765310 -114.016946 78 7498ft 187kts
10-Oct-20 13:25 32.776882 -113.956515 88 7494ft 186kts
10-Oct-20 13:26 32.779864 -113.894891 88 7491ft 186kts
10-Oct-20 13:27 32.785784 -113.833503 88 7486ft 186kts
10-Oct-20 13:28 32.792597 -113.772267 82 7482ft 187kts
10-Oct-20 13:29 32.801981 -113.711550 82 7477ft 187kts
10-Oct-20 13:30 32.811274 -113.650618 82 7473ft 187kts
10-Oct-20 13:31 32.820554 -113.589667 82 7469ft 187kts
10-Oct-20 13:32 32.829773 -113.528702 82 7468ft 187kts
10-Oct-20 13:33 32.839017 -113.467499 83 7459ft 187kts
10-Oct-20 13:34 32.848195 -113.406465 83 7456ft 187kts
10-Oct-20 13:35 32.857347 -113.345409 83 7461ft 187kts
10-Oct-20 13:36 32.866404 -113.284964 83 7519ft 186kts
10-Oct-20 13:37 32.875862 -113.224081 83 7510ft 187kts
10-Oct-20 13:38 32.884937 -113.163013 83 7511ft 187kts
10-Oct-20 13:39 32.893946 -113.102094 83 7504ft 187kts
10-Oct-20 13:40 32.902916 -113.041157 83 7500ft 186kts
10-Oct-20 13:41 32.911848 -112.980375 83 7496ft 186kts
10-Oct-20 13:42 32.920758 -112.919503 84 7490ft 186kts
10-Oct-20 13:43 32.929632 -112.858665 84 7487ft 186kts
10-Oct-20 13:44 32.938488 -112.797664 84 7482ft 186kts
10-Oct-20 13:45 32.947277 -112.737040 83 7542ft 182kts
10-Oct-20 13:46 32.954006 -112.677518 102 7560ft 179kts
10-Oct-20 13:47 32.923713 -112.634223 140 7598ft 173kts
10-Oct-20 13:48 32.889639 -112.593313 137 7587ft 174kts
10-Oct-20 13:49 32.855783 -112.552266 137 7584ft 174kts
10-Oct-20 13:50 32.821792 -112.511161 137 7579ft 174kts
10-Oct-20 13:51 32.787792 -112.469992 137 7574ft 174kts
10-Oct-20 13:52 32.753856 -112.429061 137 7571ft 174kts
10-Oct-20 13:53 32.719943 -112.388133 137 7568ft 174kts
10-Oct-20 13:54 32.686050 -112.347266 138 7567ft 173kts
10-Oct-20 13:55 32.652365 -112.306571 138 7609ft 173kts
10-Oct-20 13:56 32.618472 -112.265838 138 7602ft 173kts
10-Oct-20 13:57 32.584599 -112.225186 138 7600ft 173kts
10-Oct-20 13:58 32.550742 -112.184568 138 7594ft 173kts
10-Oct-20 13:59 32.516899 -112.144016 138 7590ft 173kts
10-Oct-20 14:00 32.483121 -112.103610 138 7587ft 173kts
10-Oct-20 14:01 32.449072 -112.062933 138 7504ft 175kts
10-Oct-20 14:02 32.414970 -112.022214 138 7495ft 173kts
10-Oct-20 14:03 32.381013 -111.981734 138 7491ft 173kts
10-Oct-20 14:04 32.347012 -111.941213 138 7487ft 173kts
10-Oct-20 14:05 32.314263 -111.899449 131 7486ft 174kts
10-Oct-20 14:06 32.284500 -111.854305 132 7479ft 174kts
10-Oct-20 14:07 32.254520 -111.809458 132 7476ft 174kts
10-Oct-20 14:08 32.224342 -111.764686 132 7472ft 174kts
10-Oct-20 14:09 32.194419 -111.719925 132 7467ft 173kts
10-Oct-20 14:10 32.164609 -111.675514 132 7465ft 173kts
10-Oct-20 14:11 32.134625 -111.630900 132 7462ft 173kts
10-Oct-20 14:12 32.104653 -111.586256 132 7457ft 173kts
10-Oct-20 14:13 32.074637 -111.541663 132 7453ft 174kts
10-Oct-20 14:14 32.044588 -111.497003 132 7448ft 173kts
10-Oct-20 14:15 32.014593 -111.452603 132 7446ft 174kts
10-Oct-20 14:16 31.984451 -111.407986 132 7440ft 174kts
10-Oct-20 14:17 31.954373 -111.363430 132 7439ft 174kts
10-Oct-20 14:18 31.924349 -111.319038 133 7486ft 173kts
10-Oct-20 14:19 31.894156 -111.274519 133 7512ft 172kts
10-Oct-20 14:20 31.863948 -111.230006 133 7533ft 174kts
10-Oct-20 14:21 31.833583 -111.185331 133 7528ft 175kts
10-Oct-20 14:22 31.803099 -111.140472 133 7525ft 175kts
10-Oct-20 14:23 31.772427 -111.095458 133 7522ft 176kts
10-Oct-20 14:24 31.741796 -111.050491 133 7515ft 176kts
10-Oct-20 14:25 31.711171 -111.005633 133 7513ft 176kts
10-Oct-20 14:26 31.675276 -110.969679 166 7515ft 169kts
10-Oct-20 14:27 31.630838 -110.950701 162 7509ft 170kts
10-Oct-20 14:28 31.586874 -110.929854 162 7503ft 171kts
10-Oct-20 14:29 31.544920 -110.909864 162 6550ft 156kts
10-Oct-20 14:30 31.509555 -110.885498 145 5448ft 135kts
10-Oct-20 14:31 31.477151 -110.873621 178 4702ft 121kts
10-Oct-20 14:32 31.448927 -110.874097 193 4475ft 89kts
10-Oct-20 14:34 31.430882 -110.861877 73 4755ft 108kts
10-Oct-20 14:35 31.445244 -110.833415 132 4835ft 84kts
10-Oct-20 14:36 31.427635 -110.835726 222 4125ft 68kts
10-Oct-20 14:37 31.419342 -110.845922 225 3911ft 12kts
10-Oct-20 14:38 31.418407 -110.848810 226 3896ft 13kts
10-Oct-20 14:39 31.418274 -110.849664 145 3893ft 0kts
10-Oct-20 14:40 31.418274 -110.849664 145 3893ft 0kts
10-Oct-20 14:41 31.418274 -110.849664 145 3893ft 0kts

Navigation Log

Ident Type
Flight plan parsing failed, navigation log unavailable